createdAt,value
2023-05-08T00:00:08.344Z,100.00
2023-05-08T00:05:13.496Z,100.00
2023-05-08T00:10:17.466Z,100.00
2023-05-08T00:15:21.579Z,100.00
2023-05-08T00:20:27.243Z,100.00
2023-05-08T00:25:32.164Z,100.00
2023-05-08T00:30:36.481Z,100.00
2023-05-08T00:35:43.106Z,100.00
2023-05-08T00:40:46.994Z,100.00
2023-05-08T00:45:51.425Z,100.00
2023-05-08T00:50:56.915Z,100.00
2023-05-08T00:56:01.284Z,100.00
2023-05-08T01:01:06.036Z,100.00
2023-05-08T01:06:11.924Z,100.00
2023-05-08T01:11:22.816Z,100.00
2023-05-08T01:16:33.542Z,100.00
2023-05-08T01:21:46.788Z,100.00
2023-05-08T01:27:33.248Z,100.00
2023-05-08T01:32:42.984Z,100.00
2023-05-08T01:37:52.777Z,100.00
2023-05-08T01:43:04.933Z,100.00
2023-05-08T01:48:13.604Z,100.00
2023-05-08T01:53:24.042Z,100.00
2023-05-08T01:58:29.020Z,100.00
2023-05-08T02:03:36.085Z,100.00
2023-05-08T02:08:40.893Z,100.00
2023-05-08T02:13:46.380Z,100.00
2023-05-08T02:18:53.349Z,100.00
2023-05-08T02:23:58.513Z,100.00
2023-05-08T02:29:03.724Z,100.00
2023-05-08T02:34:10.672Z,100.00
2023-05-08T02:39:16.225Z,100.00
2023-05-08T02:44:20.693Z,100.00
2023-05-08T02:49:32.029Z,100.00
2023-05-08T02:54:43.418Z,100.00
2023-05-08T02:59:58.070Z,100.00
2023-05-08T03:05:11.291Z,100.00
2023-05-08T03:10:16.879Z,100.00
2023-05-08T03:15:26.924Z,100.00
2023-05-08T03:20:34.802Z,100.00
2023-05-08T03:25:41.073Z,100.00
2023-05-08T03:30:46.456Z,100.00
2023-05-08T03:35:54.752Z,100.00
2023-05-08T03:41:00.478Z,100.00
2023-05-08T03:46:06.299Z,100.00
2023-05-08T03:51:12.241Z,100.00
2023-05-08T03:56:17.650Z,100.00
2023-05-08T04:01:24.922Z,100.00
2023-05-08T04:06:48.594Z,100.00
2023-05-08T04:12:03.432Z,100.00
2023-05-08T04:17:10.988Z,100.00
2023-05-08T04:22:19.844Z,100.00
2023-05-08T04:27:24.721Z,100.00
2023-05-08T04:32:30.318Z,100.00
2023-05-08T04:37:37.148Z,100.00
2023-05-08T04:42:43.083Z,100.00
2023-05-08T04:47:47.670Z,100.00
2023-05-08T04:52:54.422Z,100.00
2023-05-08T04:57:58.871Z,100.00
2023-05-08T05:03:03.089Z,100.00
2023-05-08T05:08:09.181Z,100.00
2023-05-08T05:13:13.741Z,100.00
2023-05-08T05:18:18.277Z,100.00
2023-05-08T05:23:23.792Z,100.00
2023-05-08T05:28:28.157Z,100.00
2023-05-08T05:33:32.649Z,100.00
2023-05-08T05:38:38.434Z,100.00
2023-05-08T05:43:42.861Z,100.00
2023-05-08T05:48:46.979Z,100.00
2023-05-08T05:53:52.852Z,100.00
2023-05-08T05:58:57.214Z,100.00
2023-05-08T06:04:02.591Z,100.00
2023-05-08T06:09:08.634Z,100.00
2023-05-08T06:14:12.514Z,100.00
2023-05-08T06:19:17.042Z,100.00
2023-05-08T06:24:22.680Z,100.00
2023-05-08T06:29:26.731Z,100.00
2023-05-08T06:34:31.563Z,100.00
2023-05-08T06:39:36.884Z,100.00
2023-05-08T06:44:41.224Z,100.00
2023-05-08T06:49:45.292Z,100.00
2023-05-08T06:54:50.734Z,100.00
2023-05-08T06:59:54.831Z,100.00
2023-05-08T07:04:59.095Z,100.00
2023-05-08T07:10:07.255Z,100.00
2023-05-08T07:15:24.717Z,100.00
2023-05-08T07:20:30.017Z,96.78
2023-05-08T07:25:35.269Z,95.40
2023-05-08T07:30:39.056Z,96.19
2023-05-08T07:35:43.126Z,93.33
2023-05-08T07:40:49.016Z,94.13
2023-05-08T07:45:53.267Z,96.92
2023-05-08T07:50:57.728Z,94.05
2023-05-08T07:56:03.300Z,87.92
2023-05-08T08:01:07.153Z,87.51
2023-05-08T08:06:11.305Z,84.34
2023-05-08T08:11:17.188Z,83.30
2023-05-08T08:16:21.352Z,83.90
2023-05-08T08:21:25.284Z,80.73
2023-05-08T08:26:30.455Z,78.92
2023-05-08T08:31:34.412Z,79.93
2023-05-08T08:36:38.469Z,79.10
2023-05-08T08:41:43.692Z,78.79
2023-05-08T08:46:53.119Z,72.78
2023-05-08T08:51:59.756Z,70.96
2023-05-08T08:57:08.209Z,71.35
2023-05-08T09:02:17.901Z,71.54
2023-05-08T09:07:22.916Z,70.82
2023-05-08T09:12:29.011Z,69.12
2023-05-08T09:17:33.063Z,67.14
2023-05-08T09:22:38.053Z,65.69
2023-05-08T09:27:43.254Z,63.76
2023-05-08T09:32:50.002Z,61.92
2023-05-08T09:37:55.547Z,64.95
2023-05-08T09:43:13.602Z,65.11
2023-05-08T09:48:17.886Z,63.81
2023-05-08T09:53:31.951Z,62.69
2023-05-08T09:58:41.012Z,61.80
2023-05-08T10:03:49.435Z,61.48
2023-05-08T10:09:08.101Z,59.50
2023-05-08T10:14:13.827Z,59.26
2023-05-08T10:19:19.873Z,59.27
2023-05-08T10:24:28.600Z,60.02
2023-05-08T10:29:42.386Z,58.99
2023-05-08T10:34:48.057Z,60.65
2023-05-08T10:39:53.311Z,61.53
2023-05-08T10:44:59.111Z,60.59
2023-05-08T10:50:07.111Z,57.23
2023-05-08T10:55:20.461Z,57.51
2023-05-08T11:00:25.882Z,58.11
2023-05-08T11:05:29.950Z,57.75
2023-05-08T11:10:37.294Z,58.33
2023-05-08T11:15:43.334Z,58.78
2023-05-08T11:20:57.472Z,55.89
2023-05-08T11:26:02.929Z,56.16
2023-05-08T11:31:09.466Z,52.24
2023-05-08T11:36:14.340Z,53.10
2023-05-08T11:41:22.702Z,53.62
2023-05-08T11:46:39.164Z,52.61
2023-05-08T11:51:46.916Z,52.16
2023-05-08T11:56:52.096Z,52.40
2023-05-08T12:02:07.795Z,52.96
2023-05-08T12:07:13.522Z,51.75
2023-05-08T12:12:17.606Z,52.18
2023-05-08T12:17:23.743Z,53.63
2023-05-08T12:22:28.044Z,50.91
2023-05-08T12:27:32.110Z,51.19
2023-05-08T12:32:38.062Z,48.92
2023-05-08T12:37:41.952Z,49.44
2023-05-08T12:42:47.013Z,48.38
2023-05-08T12:47:54.316Z,47.58
2023-05-08T12:53:04.043Z,46.59
2023-05-08T12:58:14.695Z,46.62
2023-05-08T13:03:25.983Z,46.93
2023-05-08T13:08:34.129Z,45.96
2023-05-08T13:13:38.516Z,46.97
2023-05-08T13:18:44.599Z,44.82
2023-05-08T13:23:49.070Z,44.71
2023-05-08T13:28:55.992Z,46.87
2023-05-08T13:34:02.034Z,45.11
2023-05-08T13:39:06.320Z,46.16
2023-05-08T13:44:10.363Z,47.04
2023-05-08T13:49:15.767Z,45.27
2023-05-08T13:54:19.781Z,47.42
2023-05-08T13:59:23.996Z,49.08
2023-05-08T14:04:29.423Z,49.70
2023-05-08T14:09:33.679Z,49.00
2023-05-08T14:14:37.465Z,50.45
2023-05-08T14:19:42.787Z,47.97
2023-05-08T14:24:47.225Z,47.32
2023-05-08T14:29:53.521Z,46.66
2023-05-08T14:34:59.162Z,49.20
2023-05-08T14:40:04.111Z,48.67
2023-05-08T14:45:09.450Z,45.17
2023-05-08T14:50:14.973Z,43.98
2023-05-08T15:00:44.884Z,46.30
2023-05-08T15:05:50.356Z,46.66
2023-05-08T15:10:54.440Z,46.83
2023-05-08T15:15:59.438Z,43.75
2023-05-08T15:21:05.920Z,43.02
2023-05-08T15:26:10.087Z,45.81
2023-05-08T15:31:14.380Z,46.91
2023-05-08T15:36:19.611Z,49.36
2023-05-08T15:41:23.746Z,50.53
2023-05-08T15:46:27.749Z,48.40
2023-05-08T15:51:33.470Z,48.65
2023-05-08T15:56:37.545Z,49.46
2023-05-08T16:01:41.940Z,49.74
2023-05-08T16:06:47.644Z,49.66
2023-05-08T16:11:51.700Z,50.88
2023-05-08T16:16:55.581Z,52.51
2023-05-08T16:22:00.973Z,52.15
2023-05-08T16:27:05.252Z,51.51
2023-05-08T16:32:09.479Z,52.80
2023-05-08T16:37:14.705Z,52.24
2023-05-08T16:42:18.831Z,53.95
2023-05-08T16:47:22.672Z,55.10
2023-05-08T16:52:28.463Z,55.39
2023-05-08T16:57:32.866Z,57.26
2023-05-08T17:02:37.261Z,57.42
2023-05-08T17:07:42.483Z,55.09
2023-05-08T17:12:46.353Z,54.93
2023-05-08T17:17:50.681Z,55.87
2023-05-08T17:22:56.682Z,55.69
2023-05-08T17:28:01.538Z,56.86
2023-05-08T17:33:05.919Z,57.83
2023-05-08T17:38:11.511Z,58.04
2023-05-08T17:43:15.594Z,60.64
2023-05-08T17:48:19.765Z,60.88
2023-05-08T17:53:25.247Z,62.12
2023-05-08T17:58:29.473Z,63.22
2023-05-08T18:03:33.429Z,63.79
2023-05-08T18:08:40.800Z,66.17
2023-05-08T18:13:46.253Z,66.91
2023-05-08T18:18:50.822Z,67.04
2023-05-08T18:23:56.702Z,69.66
2023-05-08T18:29:01.102Z,69.80
2023-05-08T18:34:05.385Z,73.07
2023-05-08T18:39:11.014Z,75.31
2023-05-08T18:44:15.414Z,77.72
2023-05-08T18:49:19.655Z,78.25
2023-05-08T18:54:26.996Z,80.47
2023-05-08T18:59:31.058Z,82.56
2023-05-08T19:04:35.155Z,84.11
2023-05-08T19:09:40.622Z,87.04
2023-05-08T19:14:44.647Z,85.14
2023-05-08T19:19:51.456Z,86.18
2023-05-08T19:24:57.112Z,92.78
2023-05-08T19:30:01.148Z,91.27
2023-05-08T19:35:05.934Z,100.00
2023-05-08T19:40:12.836Z,94.08
2023-05-08T19:45:17.216Z,95.64
2023-05-08T19:50:21.923Z,100.00
2023-05-08T19:55:27.384Z,100.00
2023-05-08T20:00:31.467Z,100.00
2023-05-08T20:05:35.588Z,100.00
2023-05-08T20:10:41.172Z,100.00
2023-05-08T20:15:45.492Z,100.00
2023-05-08T20:20:49.583Z,100.00
2023-05-08T20:25:55.229Z,100.00
2023-05-08T20:30:59.493Z,100.00
2023-05-08T20:36:03.378Z,100.00
2023-05-08T20:41:08.866Z,100.00
2023-05-08T20:46:12.937Z,100.00
2023-05-08T20:51:16.758Z,100.00
2023-05-08T20:56:22.773Z,100.00
2023-05-08T21:01:26.946Z,100.00
2023-05-08T21:06:30.933Z,100.00
2023-05-08T21:11:36.461Z,100.00
2023-05-08T21:16:40.656Z,100.00
2023-05-08T21:21:44.922Z,100.00
2023-05-08T21:26:50.968Z,100.00
2023-05-08T21:31:55.141Z,100.00
2023-05-08T21:36:59.356Z,100.00
2023-05-08T21:42:04.854Z,100.00
2023-05-08T21:47:08.919Z,100.00
2023-05-08T21:52:13.037Z,100.00
2023-05-08T21:57:18.331Z,100.00
2023-05-08T22:02:22.626Z,100.00
2023-05-08T22:07:26.724Z,100.00
2023-05-08T22:12:31.970Z,100.00
2023-05-08T22:17:36.055Z,100.00
2023-05-08T22:22:40.256Z,100.00
2023-05-08T22:27:46.346Z,100.00
2023-05-08T22:32:55.336Z,100.00
2023-05-08T22:37:59.936Z,100.00
2023-05-08T22:43:05.650Z,100.00
2023-05-08T22:48:10.486Z,100.00
2023-05-08T22:53:14.698Z,100.00
2023-05-08T22:58:20.134Z,100.00
2023-05-08T23:03:24.279Z,100.00
2023-05-08T23:08:28.347Z,100.00
2023-05-08T23:13:34.387Z,100.00
2023-05-08T23:18:38.830Z,100.00
2023-05-08T23:23:42.886Z,100.00
2023-05-08T23:28:48.745Z,100.00
2023-05-08T23:33:52.799Z,100.00
2023-05-08T23:38:57.012Z,100.00
2023-05-08T23:44:02.458Z,100.00
2023-05-08T23:49:06.750Z,100.00
2023-05-08T23:54:10.832Z,100.00
2023-05-08T23:59:16.334Z,100.00
